Richmond North's Hourly Summary for Monday, May 14, 2018
Hour Temp
(f)
RH
(%)
Solar Rad.
(MJ/m2)
Rainfall
(in)
Wind
(mph)
5/14/2018 12:00 AM 73 93 0 0 0.18
5/14/2018 1:00 AM 71 95 0 0 0.01
5/14/2018 2:00 AM 71 97 0 0 0.01
5/14/2018 3:00 AM 71 98 0 0 0.61
5/14/2018 4:00 AM 71 98 0 0 0.42
5/14/2018 5:00 AM 69 98 0 0 0
5/14/2018 6:00 AM 68 99 0.06 0 0
5/14/2018 7:00 AM 72 92 0.49 0 0.04
5/14/2018 8:00 AM 76 86 0.52 0 0.66
5/14/2018 9:00 AM 78 75 1.34 0 2.04
5/14/2018 10:00 AM 80 72 1.35 0 2.46
5/14/2018 11:00 AM 81 60 1.69 0 1.68
5/14/2018 12:00 PM 85 48 3.26 0 2.81
5/14/2018 1:00 PM 86 47 2.75 0 3.72
5/14/2018 2:00 PM 88 44 3.09 0 3.75
5/14/2018 3:00 PM 89 42 2.68 0 4.49
5/14/2018 4:00 PM 88 40 2.08 0 4.63
5/14/2018 5:00 PM 87 44 1.94 0 5.13
5/14/2018 6:00 PM 85 52 1.06 0 4.59
5/14/2018 7:00 PM 81 56 0.19 0 2.67
5/14/2018 8:00 PM 77 67 0 0 1.48
5/14/2018 9:00 PM 74 81 0 0 1.39
5/14/2018 10:00 PM 72 84 0 0 0.24
5/14/2018 11:00 PM 70 91 0 0 0.01
Data Summary 77 73 22.50 0.00 1.79